sensor_id;sensor_type;location;lat;lon;timestamp;temperature;humidity
46139;DHT22;32398;49.112;8.598;2024-03-06T00:02:06;7.60;99.90
46139;DHT22;32398;49.112;8.598;2024-03-06T00:04:33;7.60;99.90
46139;DHT22;32398;49.112;8.598;2024-03-06T00:07:01;7.60;99.90
46139;DHT22;32398;49.112;8.598;2024-03-06T00:09:28;7.60;99.90
46139;DHT22;32398;49.112;8.598;2024-03-06T00:12:01;7.60;99.90
46139;DHT22;32398;49.112;8.598;2024-03-06T00:14:27;7.60;99.90
46139;DHT22;32398;49.112;8.598;2024-03-06T00:16:54;7.60;99.90
46139;DHT22;32398;49.112;8.598;2024-03-06T00:19:22;7.50;99.90
46139;DHT22;32398;49.112;8.598;2024-03-06T00:21:49;7.50;99.90
46139;DHT22;32398;49.112;8.598;2024-03-06T00:24:19;7.60;99.90
46139;DHT22;32398;49.112;8.598;2024-03-06T00:26:45;7.60;99.90
46139;DHT22;32398;49.112;8.598;2024-03-06T00:29:12;7.50;99.90
46139;DHT22;32398;49.112;8.598;2024-03-06T00:31:41;7.50;99.90
46139;DHT22;32398;49.112;8.598;2024-03-06T00:34:09;7.50;99.90
46139;DHT22;32398;49.112;8.598;2024-03-06T00:36:36;7.50;99.90
46139;DHT22;32398;49.112;8.598;2024-03-06T00:39:05;7.50;99.90
46139;DHT22;32398;49.112;8.598;2024-03-06T00:41:34;7.50;99.90
46139;DHT22;32398;49.112;8.598;2024-03-06T00:44:01;7.50;99.90
46139;DHT22;32398;49.112;8.598;2024-03-06T00:46:28;7.50;99.90
46139;DHT22;32398;49.112;8.598;2024-03-06T00:48:56;7.50;99.90
46139;DHT22;32398;49.112;8.598;2024-03-06T00:51:22;7.50;99.90
46139;DHT22;32398;49.112;8.598;2024-03-06T00:53:49;7.50;99.90
46139;DHT22;32398;49.112;8.598;2024-03-06T00:56:16;7.50;99.90
46139;DHT22;32398;49.112;8.598;2024-03-06T00:58:44;7.50;99.90
46139;DHT22;32398;49.112;8.598;2024-03-06T01:01:11;7.50;99.90
46139;DHT22;32398;49.112;8.598;2024-03-06T01:03:37;7.50;99.90
46139;DHT22;32398;49.112;8.598;2024-03-06T01:06:04;7.50;99.90
46139;DHT22;32398;49.112;8.598;2024-03-06T01:08:30;7.50;99.90
46139;DHT22;32398;49.112;8.598;2024-03-06T01:10:57;7.50;99.90
46139;DHT22;32398;49.112;8.598;2024-03-06T01:13:24;7.50;99.90
46139;DHT22;32398;49.112;8.598;2024-03-06T01:15:52;7.50;99.90
46139;DHT22;32398;49.112;8.598;2024-03-06T01:18:20;7.50;99.90
46139;DHT22;32398;49.112;8.598;2024-03-06T01:20:47;7.50;99.90
46139;DHT22;32398;49.112;8.598;2024-03-06T01:23:13;7.50;99.90
46139;DHT22;32398;49.112;8.598;2024-03-06T01:25:40;7.50;99.90
46139;DHT22;32398;49.112;8.598;2024-03-06T01:28:07;7.50;99.90
46139;DHT22;32398;49.112;8.598;2024-03-06T01:30:33;7.50;99.90
46139;DHT22;32398;49.112;8.598;2024-03-06T01:33:02;7.40;99.90
46139;DHT22;32398;49.112;8.598;2024-03-06T01:35:28;7.40;99.90
46139;DHT22;32398;49.112;8.598;2024-03-06T01:37:55;7.50;99.90
46139;DHT22;32398;49.112;8.598;2024-03-06T01:40:22;7.40;99.90
46139;DHT22;32398;49.112;8.598;2024-03-06T01:42:49;7.40;99.90
46139;DHT22;32398;49.112;8.598;2024-03-06T01:45:16;7.40;99.90
46139;DHT22;32398;49.112;8.598;2024-03-06T01:47:43;7.40;99.90
46139;DHT22;32398;49.112;8.598;2024-03-06T01:50:11;7.40;99.90
46139;DHT22;32398;49.112;8.598;2024-03-06T01:52:38;7.40;99.90
46139;DHT22;32398;49.112;8.598;2024-03-06T01:55:06;7.40;99.90
46139;DHT22;32398;49.112;8.598;2024-03-06T01:57:33;7.40;99.90
46139;DHT22;32398;49.112;8.598;2024-03-06T02:00:01;7.40;99.90
46139;DHT22;32398;49.112;8.598;2024-03-06T02:02:28;7.40;99.90
46139;DHT22;32398;49.112;8.598;2024-03-06T02:04:55;7.40;99.90
46139;DHT22;32398;49.112;8.598;2024-03-06T02:07:24;7.40;99.90
46139;DHT22;32398;49.112;8.598;2024-03-06T02:09:50;7.40;99.90
46139;DHT22;32398;49.112;8.598;2024-03-06T02:12:17;7.40;99.90
46139;DHT22;32398;49.112;8.598;2024-03-06T02:14:44;7.40;99.90
46139;DHT22;32398;49.112;8.598;2024-03-06T02:17:11;7.40;99.90
46139;DHT22;32398;49.112;8.598;2024-03-06T02:19:38;7.40;99.90
46139;DHT22;32398;49.112;8.598;2024-03-06T02:22:07;7.30;99.90
46139;DHT22;32398;49.112;8.598;2024-03-06T02:24:33;7.40;99.90
46139;DHT22;32398;49.112;8.598;2024-03-06T02:27:00;7.40;99.90
46139;DHT22;32398;49.112;8.598;2024-03-06T02:29:27;7.40;99.90
46139;DHT22;32398;49.112;8.598;2024-03-06T02:31:53;7.40;99.90
46139;DHT22;32398;49.112;8.598;2024-03-06T02:34:20;7.30;99.90
46139;DHT22;32398;49.112;8.598;2024-03-06T02:36:47;7.30;99.90
46139;DHT22;32398;49.112;8.598;2024-03-06T02:39:15;7.30;99.90
46139;DHT22;32398;49.112;8.598;2024-03-06T02:41:42;7.30;99.90
46139;DHT22;32398;49.112;8.598;2024-03-06T02:44:10;7.30;99.90
46139;DHT22;32398;49.112;8.598;2024-03-06T02:46:37;7.30;99.90
46139;DHT22;32398;49.112;8.598;2024-03-06T02:49:03;7.30;99.90
46139;DHT22;32398;49.112;8.598;2024-03-06T02:51:31;7.30;99.90
46139;DHT22;32398;49.112;8.598;2024-03-06T02:53:57;7.30;99.90
46139;DHT22;32398;49.112;8.598;2024-03-06T02:56:25;7.30;99.90
46139;DHT22;32398;49.112;8.598;2024-03-06T02:58:52;7.30;99.90
46139;DHT22;32398;49.112;8.598;2024-03-06T03:01:20;7.30;99.90
46139;DHT22;32398;49.112;8.598;2024-03-06T03:03:46;7.30;99.90
46139;DHT22;32398;49.112;8.598;2024-03-06T03:06:13;7.30;99.90
46139;DHT22;32398;49.112;8.598;2024-03-06T03:08:40;7.20;99.90
46139;DHT22;32398;49.112;8.598;2024-03-06T03:11:07;7.20;99.90
46139;DHT22;32398;49.112;8.598;2024-03-06T03:13:35;7.20;99.90
46139;DHT22;32398;49.112;8.598;2024-03-06T03:16:02;7.30;99.90
46139;DHT22;32398;49.112;8.598;2024-03-06T03:18:29;7.20;99.90
46139;DHT22;32398;49.112;8.598;2024-03-06T03:20:55;7.30;99.90
46139;DHT22;32398;49.112;8.598;2024-03-06T03:23:22;7.20;99.90
46139;DHT22;32398;49.112;8.598;2024-03-06T03:25:49;7.20;99.90
46139;DHT22;32398;49.112;8.598;2024-03-06T03:28:16;7.20;99.90
46139;DHT22;32398;49.112;8.598;2024-03-06T03:30:44;7.20;99.90
46139;DHT22;32398;49.112;8.598;2024-03-06T03:33:10;7.20;99.90
46139;DHT22;32398;49.112;8.598;2024-03-06T03:35:37;7.20;99.90
46139;DHT22;32398;49.112;8.598;2024-03-06T03:38:04;7.20;99.90
46139;DHT22;32398;49.112;8.598;2024-03-06T03:40:31;7.10;99.90
46139;DHT22;32398;49.112;8.598;2024-03-06T03:42:58;7.20;99.90
46139;DHT22;32398;49.112;8.598;2024-03-06T03:45:31;7.20;99.90
46139;DHT22;32398;49.112;8.598;2024-03-06T03:48:01;7.20;99.90
46139;DHT22;32398;49.112;8.598;2024-03-06T03:50:28;7.20;99.90
46139;DHT22;32398;49.112;8.598;2024-03-06T03:52:54;7.20;99.90
46139;DHT22;32398;49.112;8.598;2024-03-06T03:55:23;7.20;99.90
46139;DHT22;32398;49.112;8.598;2024-03-06T03:57:50;7.10;99.90
46139;DHT22;32398;49.112;8.598;2024-03-06T04:00:18;7.20;99.90
46139;DHT22;32398;49.112;8.598;2024-03-06T04:02:45;7.10;99.90
46139;DHT22;32398;49.112;8.598;2024-03-06T04:05:13;7.10;99.90
46139;DHT22;32398;49.112;8.598;2024-03-06T04:07:39;7.10;99.90
46139;DHT22;32398;49.112;8.598;2024-03-06T04:10:06;7.10;99.90
46139;DHT22;32398;49.112;8.598;2024-03-06T04:12:36;7.10;99.90
46139;DHT22;32398;49.112;8.598;2024-03-06T04:15:03;7.10;99.90
46139;DHT22;32398;49.112;8.598;2024-03-06T04:17:30;7.10;99.90
46139;DHT22;32398;49.112;8.598;2024-03-06T04:19:57;7.10;99.90
46139;DHT22;32398;49.112;8.598;2024-03-06T04:22:25;7.10;99.90
46139;DHT22;32398;49.112;8.598;2024-03-06T04:24:53;7.10;99.90
46139;DHT22;32398;49.112;8.598;2024-03-06T04:27:21;7.10;99.90
46139;DHT22;32398;49.112;8.598;2024-03-06T04:29:47;7.10;99.90
46139;DHT22;32398;49.112;8.598;2024-03-06T04:32:14;7.10;99.90
46139;DHT22;32398;49.112;8.598;2024-03-06T04:34:41;7.10;99.90
46139;DHT22;32398;49.112;8.598;2024-03-06T04:37:07;7.10;99.90
46139;DHT22;32398;49.112;8.598;2024-03-06T04:39:38;7.10;99.90
46139;DHT22;32398;49.112;8.598;2024-03-06T04:42:06;7.00;99.90
46139;DHT22;32398;49.112;8.598;2024-03-06T04:44:38;7.00;99.90
46139;DHT22;32398;49.112;8.598;2024-03-06T04:47:05;7.00;99.90
46139;DHT22;32398;49.112;8.598;2024-03-06T04:49:32;7.00;99.90
46139;DHT22;32398;49.112;8.598;2024-03-06T04:51:59;7.00;99.90
46139;DHT22;32398;49.112;8.598;2024-03-06T04:54:26;7.00;99.90
46139;DHT22;32398;49.112;8.598;2024-03-06T04:56:54;7.00;99.90
46139;DHT22;32398;49.112;8.598;2024-03-06T04:59:21;7.00;99.90
46139;DHT22;32398;49.112;8.598;2024-03-06T05:01:49;7.00;99.90
46139;DHT22;32398;49.112;8.598;2024-03-06T05:04:16;7.00;99.90
46139;DHT22;32398;49.112;8.598;2024-03-06T05:06:43;7.00;99.90
46139;DHT22;32398;49.112;8.598;2024-03-06T05:09:10;7.00;99.90
46139;DHT22;32398;49.112;8.598;2024-03-06T05:11:36;7.00;99.90
46139;DHT22;32398;49.112;8.598;2024-03-06T05:14:04;7.00;99.90
46139;DHT22;32398;49.112;8.598;2024-03-06T05:16:31;7.00;99.90
46139;DHT22;32398;49.112;8.598;2024-03-06T05:18:58;7.00;99.90
46139;DHT22;32398;49.112;8.598;2024-03-06T05:21:24;6.90;99.90
46139;DHT22;32398;49.112;8.598;2024-03-06T05:23:51;7.00;99.90
46139;DHT22;32398;49.112;8.598;2024-03-06T05:26:18;6.90;99.90
46139;DHT22;32398;49.112;8.598;2024-03-06T05:28:44;7.00;99.90
46139;DHT22;32398;49.112;8.598;2024-03-06T05:31:19;6.90;99.90
46139;DHT22;32398;49.112;8.598;2024-03-06T05:33:47;7.00;99.90
46139;DHT22;32398;49.112;8.598;2024-03-06T05:36:13;6.90;99.90
46139;DHT22;32398;49.112;8.598;2024-03-06T05:38:40;6.90;99.90
46139;DHT22;32398;49.112;8.598;2024-03-06T05:41:08;6.90;99.90
46139;DHT22;32398;49.112;8.598;2024-03-06T05:43:35;6.90;99.90
46139;DHT22;32398;49.112;8.598;2024-03-06T05:46:01;6.90;99.90
46139;DHT22;32398;49.112;8.598;2024-03-06T05:48:29;6.90;99.90
46139;DHT22;32398;49.112;8.598;2024-03-06T05:50:56;6.90;99.90
46139;DHT22;32398;49.112;8.598;2024-03-06T05:53:23;6.90;99.90
46139;DHT22;32398;49.112;8.598;2024-03-06T05:55:51;6.90;99.90
46139;DHT22;32398;49.112;8.598;2024-03-06T05:58:18;6.90;99.90
46139;DHT22;32398;49.112;8.598;2024-03-06T06:00:45;6.90;99.90
46139;DHT22;32398;49.112;8.598;2024-03-06T06:03:12;6.90;99.90
46139;DHT22;32398;49.112;8.598;2024-03-06T06:05:40;6.90;99.90
46139;DHT22;32398;49.112;8.598;2024-03-06T06:08:09;6.90;99.90
46139;DHT22;32398;49.112;8.598;2024-03-06T06:10:36;6.90;99.90
46139;DHT22;32398;49.112;8.598;2024-03-06T06:13:03;6.90;99.90
46139;DHT22;32398;49.112;8.598;2024-03-06T06:15:30;6.90;99.90
46139;DHT22;32398;49.112;8.598;2024-03-06T06:17:57;6.90;99.90
46139;DHT22;32398;49.112;8.598;2024-03-06T06:20:24;6.90;99.90
46139;DHT22;32398;49.112;8.598;2024-03-06T06:22:53;6.80;99.90
46139;DHT22;32398;49.112;8.598;2024-03-06T06:25:19;6.90;99.90
46139;DHT22;32398;49.112;8.598;2024-03-06T06:27:46;6.90;99.90
46139;DHT22;32398;49.112;8.598;2024-03-06T06:30:14;6.80;99.90
46139;DHT22;32398;49.112;8.598;2024-03-06T06:32:41;6.80;99.90
46139;DHT22;32398;49.112;8.598;2024-03-06T06:35:08;6.90;99.90
46139;DHT22;32398;49.112;8.598;2024-03-06T06:37:36;6.90;99.90
46139;DHT22;32398;49.112;8.598;2024-03-06T06:40:07;6.80;99.90
46139;DHT22;32398;49.112;8.598;2024-03-06T06:42:35;6.80;99.90
46139;DHT22;32398;49.112;8.598;2024-03-06T06:45:02;6.80;99.90
46139;DHT22;32398;49.112;8.598;2024-03-06T06:47:29;6.90;99.90
46139;DHT22;32398;49.112;8.598;2024-03-06T06:49:56;6.80;99.90
46139;DHT22;32398;49.112;8.598;2024-03-06T06:52:22;6.80;99.90
46139;DHT22;32398;49.112;8.598;2024-03-06T06:54:49;6.80;99.90
46139;DHT22;32398;49.112;8.598;2024-03-06T06:57:18;6.80;99.90
46139;DHT22;32398;49.112;8.598;2024-03-06T06:59:45;6.80;99.90
46139;DHT22;32398;49.112;8.598;2024-03-06T07:02:11;6.80;99.90
46139;DHT22;32398;49.112;8.598;2024-03-06T07:04:38;6.80;99.90
46139;DHT22;32398;49.112;8.598;2024-03-06T07:07:05;6.80;99.90
46139;DHT22;32398;49.112;8.598;2024-03-06T07:09:31;6.80;99.90
46139;DHT22;32398;49.112;8.598;2024-03-06T07:11:59;6.80;99.90
46139;DHT22;32398;49.112;8.598;2024-03-06T07:14:27;6.80;99.90
46139;DHT22;32398;49.112;8.598;2024-03-06T07:16:54;6.80;99.90
46139;DHT22;32398;49.112;8.598;2024-03-06T07:19:21;6.80;99.90
46139;DHT22;32398;49.112;8.598;2024-03-06T07:21:48;6.80;99.90
46139;DHT22;32398;49.112;8.598;2024-03-06T07:24:14;6.80;99.90
46139;DHT22;32398;49.112;8.598;2024-03-06T07:26:41;6.80;99.90
46139;DHT22;32398;49.112;8.598;2024-03-06T07:29:08;6.80;99.90
46139;DHT22;32398;49.112;8.598;2024-03-06T07:31:41;6.80;99.90
46139;DHT22;32398;49.112;8.598;2024-03-06T07:34:08;6.80;99.90
46139;DHT22;32398;49.112;8.598;2024-03-06T07:36:35;6.80;99.90
46139;DHT22;32398;49.112;8.598;2024-03-06T07:39:02;6.80;99.90
46139;DHT22;32398;49.112;8.598;2024-03-06T07:41:29;6.80;99.90
46139;DHT22;32398;49.112;8.598;2024-03-06T07:43:58;6.80;99.90
46139;DHT22;32398;49.112;8.598;2024-03-06T07:46:24;6.80;99.90
46139;DHT22;32398;49.112;8.598;2024-03-06T07:48:52;6.80;99.90
46139;DHT22;32398;49.112;8.598;2024-03-06T07:51:20;6.80;99.90
46139;DHT22;32398;49.112;8.598;2024-03-06T07:53:46;6.80;99.90
46139;DHT22;32398;49.112;8.598;2024-03-06T07:56:14;6.80;99.90
46139;DHT22;32398;49.112;8.598;2024-03-06T07:58:41;6.80;99.90
46139;DHT22;32398;49.112;8.598;2024-03-06T08:01:09;6.80;99.90
46139;DHT22;32398;49.112;8.598;2024-03-06T08:03:38;6.80;99.90
46139;DHT22;32398;49.112;8.598;2024-03-06T08:06:07;6.80;99.90
46139;DHT22;32398;49.112;8.598;2024-03-06T08:08:33;6.80;99.90
46139;DHT22;32398;49.112;8.598;2024-03-06T08:11:00;6.80;99.90
46139;DHT22;32398;49.112;8.598;2024-03-06T08:13:27;6.90;99.90
46139;DHT22;32398;49.112;8.598;2024-03-06T08:15:54;6.80;99.90
46139;DHT22;32398;49.112;8.598;2024-03-06T08:18:21;6.90;99.90
46139;DHT22;32398;49.112;8.598;2024-03-06T08:20:48;6.90;99.90
46139;DHT22;32398;49.112;8.598;2024-03-06T08:23:16;6.80;99.90
46139;DHT22;32398;49.112;8.598;2024-03-06T08:25:42;6.80;99.90
46139;DHT22;32398;49.112;8.598;2024-03-06T08:28:09;6.80;99.90
46139;DHT22;32398;49.112;8.598;2024-03-06T08:30:36;6.90;99.90
46139;DHT22;32398;49.112;8.598;2024-03-06T08:33:03;6.80;99.90
46139;DHT22;32398;49.112;8.598;2024-03-06T08:35:29;6.90;99.90
46139;DHT22;32398;49.112;8.598;2024-03-06T08:37:57;6.90;99.90
46139;DHT22;32398;49.112;8.598;2024-03-06T08:40:25;6.90;99.90
46139;DHT22;32398;49.112;8.598;2024-03-06T08:42:53;6.90;99.90
46139;DHT22;32398;49.112;8.598;2024-03-06T08:45:20;6.90;99.90
46139;DHT22;32398;49.112;8.598;2024-03-06T08:47:47;6.90;99.90
46139;DHT22;32398;49.112;8.598;2024-03-06T08:50:13;6.90;99.90
46139;DHT22;32398;49.112;8.598;2024-03-06T08:52:40;6.90;99.90
46139;DHT22;32398;49.112;8.598;2024-03-06T08:55:07;7.00;99.90
46139;DHT22;32398;49.112;8.598;2024-03-06T08:57:36;7.00;99.90
46139;DHT22;32398;49.112;8.598;2024-03-06T09:00:03;7.00;99.90
46139;DHT22;32398;49.112;8.598;2024-03-06T09:02:34;7.00;99.90
46139;DHT22;32398;49.112;8.598;2024-03-06T09:05:02;7.00;99.90
46139;DHT22;32398;49.112;8.598;2024-03-06T09:07:30;7.00;99.90
46139;DHT22;32398;49.112;8.598;2024-03-06T09:09:56;7.00;99.90
46139;DHT22;32398;49.112;8.598;2024-03-06T09:12:23;7.00;99.90
46139;DHT22;32398;49.112;8.598;2024-03-06T09:14:51;7.00;99.90
46139;DHT22;32398;49.112;8.598;2024-03-06T09:17:17;7.00;99.90
46139;DHT22;32398;49.112;8.598;2024-03-06T09:19:44;7.00;99.90
46139;DHT22;32398;49.112;8.598;2024-03-06T09:22:11;7.10;99.90
46139;DHT22;32398;49.112;8.598;2024-03-06T09:24:37;7.10;99.90
46139;DHT22;32398;49.112;8.598;2024-03-06T09:27:04;7.10;99.90
46139;DHT22;32398;49.112;8.598;2024-03-06T09:29:31;7.10;99.90
46139;DHT22;32398;49.112;8.598;2024-03-06T09:31:59;7.10;99.90
46139;DHT22;32398;49.112;8.598;2024-03-06T09:34:26;7.10;99.90
46139;DHT22;32398;49.112;8.598;2024-03-06T09:36:52;7.20;99.90
46139;DHT22;32398;49.112;8.598;2024-03-06T09:39:19;7.20;99.90
46139;DHT22;32398;49.112;8.598;2024-03-06T09:41:46;7.20;99.90
46139;DHT22;32398;49.112;8.598;2024-03-06T09:44:12;7.20;99.90
46139;DHT22;32398;49.112;8.598;2024-03-06T09:46:40;7.20;99.90
46139;DHT22;32398;49.112;8.598;2024-03-06T09:49:11;7.20;99.90
46139;DHT22;32398;49.112;8.598;2024-03-06T09:51:39;7.20;99.90
46139;DHT22;32398;49.112;8.598;2024-03-06T09:54:08;7.30;99.90
46139;DHT22;32398;49.112;8.598;2024-03-06T09:56:35;7.20;99.90
46139;DHT22;32398;49.112;8.598;2024-03-06T09:59:01;7.30;99.90
46139;DHT22;32398;49.112;8.598;2024-03-06T10:01:31;7.30;99.90
46139;DHT22;32398;49.112;8.598;2024-03-06T10:03:59;7.30;99.90
46139;DHT22;32398;49.112;8.598;2024-03-06T10:06:27;7.30;99.90
46139;DHT22;32398;49.112;8.598;2024-03-06T10:09:02;7.30;99.90
46139;DHT22;32398;49.112;8.598;2024-03-06T10:11:30;7.30;99.90
46139;DHT22;32398;49.112;8.598;2024-03-06T10:13:57;7.30;99.90
46139;DHT22;32398;49.112;8.598;2024-03-06T10:16:25;7.30;99.90
46139;DHT22;32398;49.112;8.598;2024-03-06T10:18:52;7.40;99.90
46139;DHT22;32398;49.112;8.598;2024-03-06T10:21:21;7.40;99.90
46139;DHT22;32398;49.112;8.598;2024-03-06T10:23:58;7.40;99.90
46139;DHT22;32398;49.112;8.598;2024-03-06T10:26:25;7.40;99.90
46139;DHT22;32398;49.112;8.598;2024-03-06T10:28:52;7.40;99.90
46139;DHT22;32398;49.112;8.598;2024-03-06T10:31:26;7.40;99.90
46139;DHT22;32398;49.112;8.598;2024-03-06T10:33:53;7.40;99.90
46139;DHT22;32398;49.112;8.598;2024-03-06T10:36:19;7.50;99.90
46139;DHT22;32398;49.112;8.598;2024-03-06T10:38:46;7.50;99.90
46139;DHT22;32398;49.112;8.598;2024-03-06T10:41:18;7.50;99.90
46139;DHT22;32398;49.112;8.598;2024-03-06T10:43:50;7.50;99.90
46139;DHT22;32398;49.112;8.598;2024-03-06T10:46:19;7.50;99.90
46139;DHT22;32398;49.112;8.598;2024-03-06T10:48:46;7.50;99.90
46139;DHT22;32398;49.112;8.598;2024-03-06T10:51:15;7.50;99.90
46139;DHT22;32398;49.112;8.598;2024-03-06T10:53:43;7.50;99.90
46139;DHT22;32398;49.112;8.598;2024-03-06T10:56:10;7.50;99.90
46139;DHT22;32398;49.112;8.598;2024-03-06T10:58:38;7.50;99.90
46139;DHT22;32398;49.112;8.598;2024-03-06T11:01:06;7.60;99.90
46139;DHT22;32398;49.112;8.598;2024-03-06T11:03:32;7.50;99.90
46139;DHT22;32398;49.112;8.598;2024-03-06T11:06:01;7.60;99.90
46139;DHT22;32398;49.112;8.598;2024-03-06T11:08:29;7.60;99.90
46139;DHT22;32398;49.112;8.598;2024-03-06T11:13:41;7.60;99.90
46139;DHT22;32398;49.112;8.598;2024-03-06T11:16:08;7.70;99.90
46139;DHT22;32398;49.112;8.598;2024-03-06T11:18:41;7.60;99.90
46139;DHT22;32398;49.112;8.598;2024-03-06T11:24:13;7.70;99.90
46139;DHT22;32398;49.112;8.598;2024-03-06T11:26:45;7.70;99.90
46139;DHT22;32398;49.112;8.598;2024-03-06T11:29:14;7.70;99.90
46139;DHT22;32398;49.112;8.598;2024-03-06T11:31:55;7.70;99.90
46139;DHT22;32398;49.112;8.598;2024-03-06T11:34:22;7.70;99.90
46139;DHT22;32398;49.112;8.598;2024-03-06T11:36:52;7.70;99.90
46139;DHT22;32398;49.112;8.598;2024-03-06T11:39:19;7.70;99.90
46139;DHT22;32398;49.112;8.598;2024-03-06T11:41:47;7.70;99.90
46139;DHT22;32398;49.112;8.598;2024-03-06T11:44:16;7.70;99.90
46139;DHT22;32398;49.112;8.598;2024-03-06T11:46:43;7.70;99.90
46139;DHT22;32398;49.112;8.598;2024-03-06T11:49:19;7.70;99.90
46139;DHT22;32398;49.112;8.598;2024-03-06T11:51:47;7.80;99.90
46139;DHT22;32398;49.112;8.598;2024-03-06T11:54:13;7.80;99.90
46139;DHT22;32398;49.112;8.598;2024-03-06T11:56:40;7.80;99.90
46139;DHT22;32398;49.112;8.598;2024-03-06T11:59:07;7.80;99.90
46139;DHT22;32398;49.112;8.598;2024-03-06T12:01:36;7.80;99.90
46139;DHT22;32398;49.112;8.598;2024-03-06T12:04:03;7.80;99.90
46139;DHT22;32398;49.112;8.598;2024-03-06T12:06:32;7.80;99.90
46139;DHT22;32398;49.112;8.598;2024-03-06T12:08:59;7.80;99.90
46139;DHT22;32398;49.112;8.598;2024-03-06T12:11:25;7.90;99.90
46139;DHT22;32398;49.112;8.598;2024-03-06T12:13:54;7.90;99.90
46139;DHT22;32398;49.112;8.598;2024-03-06T12:16:22;7.90;99.90
46139;DHT22;32398;49.112;8.598;2024-03-06T12:18:55;7.90;99.90
46139;DHT22;32398;49.112;8.598;2024-03-06T12:21:23;7.90;99.90
46139;DHT22;32398;49.112;8.598;2024-03-06T12:23:51;7.90;99.90
46139;DHT22;32398;49.112;8.598;2024-03-06T12:26:28;8.00;99.90
46139;DHT22;32398;49.112;8.598;2024-03-06T12:29:03;8.00;99.90
46139;DHT22;32398;49.112;8.598;2024-03-06T12:31:30;7.90;99.90
46139;DHT22;32398;49.112;8.598;2024-03-06T12:33:59;8.00;99.90
46139;DHT22;32398;49.112;8.598;2024-03-06T12:36:27;8.00;99.90
46139;DHT22;32398;49.112;8.598;2024-03-06T12:38:55;8.10;99.90
46139;DHT22;32398;49.112;8.598;2024-03-06T12:41:22;8.00;99.90
46139;DHT22;32398;49.112;8.598;2024-03-06T12:43:48;8.10;99.90
46139;DHT22;32398;49.112;8.598;2024-03-06T12:46:16;8.10;99.90
46139;DHT22;32398;49.112;8.598;2024-03-06T12:48:42;8.10;99.90
46139;DHT22;32398;49.112;8.598;2024-03-06T12:51:11;8.10;99.90
46139;DHT22;32398;49.112;8.598;2024-03-06T12:53:38;8.10;99.90
46139;DHT22;32398;49.112;8.598;2024-03-06T12:56:05;8.10;99.90
46139;DHT22;32398;49.112;8.598;2024-03-06T12:58:32;8.10;99.90
46139;DHT22;32398;49.112;8.598;2024-03-06T13:01:00;8.10;99.90
46139;DHT22;32398;49.112;8.598;2024-03-06T13:03:27;8.20;99.90
46139;DHT22;32398;49.112;8.598;2024-03-06T13:05:54;8.20;99.90
46139;DHT22;32398;49.112;8.598;2024-03-06T13:08:22;8.20;99.90
46139;DHT22;32398;49.112;8.598;2024-03-06T13:10:49;8.20;99.90
46139;DHT22;32398;49.112;8.598;2024-03-06T13:13:15;8.20;99.90
46139;DHT22;32398;49.112;8.598;2024-03-06T13:15:42;8.20;99.90
46139;DHT22;32398;49.112;8.598;2024-03-06T13:18:09;8.20;99.90
46139;DHT22;32398;49.112;8.598;2024-03-06T13:20:35;8.20;99.90
46139;DHT22;32398;49.112;8.598;2024-03-06T13:23:02;8.20;99.90
46139;DHT22;32398;49.112;8.598;2024-03-06T13:25:30;8.20;99.90
46139;DHT22;32398;49.112;8.598;2024-03-06T13:27:57;8.20;99.90
46139;DHT22;32398;49.112;8.598;2024-03-06T13:30:24;8.20;99.90
46139;DHT22;32398;49.112;8.598;2024-03-06T13:32:51;8.20;99.90
46139;DHT22;32398;49.112;8.598;2024-03-06T13:35:19;8.20;99.90
46139;DHT22;32398;49.112;8.598;2024-03-06T13:37:46;8.30;99.90
46139;DHT22;32398;49.112;8.598;2024-03-06T13:40:15;8.30;99.90
46139;DHT22;32398;49.112;8.598;2024-03-06T13:42:53;8.20;99.90
46139;DHT22;32398;49.112;8.598;2024-03-06T13:45:20;8.30;99.90
46139;DHT22;32398;49.112;8.598;2024-03-06T13:47:46;8.30;99.90
46139;DHT22;32398;49.112;8.598;2024-03-06T13:50:14;8.30;99.90
46139;DHT22;32398;49.112;8.598;2024-03-06T13:52:42;8.30;99.90
46139;DHT22;32398;49.112;8.598;2024-03-06T13:55:09;8.30;99.90
46139;DHT22;32398;49.112;8.598;2024-03-06T13:57:36;8.30;99.90
46139;DHT22;32398;49.112;8.598;2024-03-06T14:00:06;8.30;99.90
46139;DHT22;32398;49.112;8.598;2024-03-06T14:02:37;8.30;99.90
46139;DHT22;32398;49.112;8.598;2024-03-06T14:05:04;8.30;99.90
46139;DHT22;32398;49.112;8.598;2024-03-06T14:07:33;8.30;99.90
46139;DHT22;32398;49.112;8.598;2024-03-06T14:10:16;8.30;99.90
46139;DHT22;32398;49.112;8.598;2024-03-06T14:12:44;8.30;99.90
46139;DHT22;32398;49.112;8.598;2024-03-06T14:15:12;8.40;99.90
46139;DHT22;32398;49.112;8.598;2024-03-06T14:17:41;8.30;99.90
46139;DHT22;32398;49.112;8.598;2024-03-06T14:20:08;8.30;99.90
46139;DHT22;32398;49.112;8.598;2024-03-06T14:22:37;8.30;99.90
46139;DHT22;32398;49.112;8.598;2024-03-06T14:25:04;8.30;99.90
46139;DHT22;32398;49.112;8.598;2024-03-06T14:27:33;8.30;99.90
46139;DHT22;32398;49.112;8.598;2024-03-06T14:30:00;8.30;99.90
46139;DHT22;32398;49.112;8.598;2024-03-06T14:32:29;8.30;99.90
46139;DHT22;32398;49.112;8.598;2024-03-06T14:35:12;8.30;99.90
46139;DHT22;32398;49.112;8.598;2024-03-06T14:37:40;8.30;99.90
46139;DHT22;32398;49.112;8.598;2024-03-06T14:40:08;8.30;99.90
46139;DHT22;32398;49.112;8.598;2024-03-06T14:42:35;8.30;99.90
46139;DHT22;32398;49.112;8.598;2024-03-06T14:45:02;8.30;99.90
46139;DHT22;32398;49.112;8.598;2024-03-06T14:47:33;8.30;99.90
46139;DHT22;32398;49.112;8.598;2024-03-06T14:49:59;8.40;99.90
46139;DHT22;32398;49.112;8.598;2024-03-06T14:52:26;8.40;99.90
46139;DHT22;32398;49.112;8.598;2024-03-06T14:54:53;8.40;99.90
46139;DHT22;32398;49.112;8.598;2024-03-06T14:57:19;8.40;99.90
46139;DHT22;32398;49.112;8.598;2024-03-06T14:59:49;8.40;99.90
46139;DHT22;32398;49.112;8.598;2024-03-06T15:02:16;8.30;99.90
46139;DHT22;32398;49.112;8.598;2024-03-06T15:04:44;8.40;99.90
46139;DHT22;32398;49.112;8.598;2024-03-06T15:07:11;8.40;99.90
46139;DHT22;32398;49.112;8.598;2024-03-06T15:09:40;8.40;99.90
46139;DHT22;32398;49.112;8.598;2024-03-06T15:12:07;8.40;99.90
46139;DHT22;32398;49.112;8.598;2024-03-06T15:14:36;8.40;99.90
46139;DHT22;32398;49.112;8.598;2024-03-06T15:17:03;8.40;99.90
46139;DHT22;32398;49.112;8.598;2024-03-06T15:19:29;8.40;99.90
46139;DHT22;32398;49.112;8.598;2024-03-06T15:21:59;8.40;99.90
46139;DHT22;32398;49.112;8.598;2024-03-06T15:24:28;8.40;99.90
46139;DHT22;32398;49.112;8.598;2024-03-06T15:27:04;8.40;99.90
46139;DHT22;32398;49.112;8.598;2024-03-06T15:29:33;8.40;99.90
46139;DHT22;32398;49.112;8.598;2024-03-06T15:32:00;8.40;99.90
46139;DHT22;32398;49.112;8.598;2024-03-06T15:34:30;8.40;99.90
46139;DHT22;32398;49.112;8.598;2024-03-06T15:37:01;8.40;99.90
46139;DHT22;32398;49.112;8.598;2024-03-06T15:39:28;8.40;99.90
46139;DHT22;32398;49.112;8.598;2024-03-06T15:41:58;8.40;99.90
46139;DHT22;32398;49.112;8.598;2024-03-06T15:44:28;8.40;99.90
46139;DHT22;32398;49.112;8.598;2024-03-06T15:46:55;8.30;99.90
46139;DHT22;32398;49.112;8.598;2024-03-06T15:49:22;8.40;99.90
46139;DHT22;32398;49.112;8.598;2024-03-06T15:51:53;8.40;99.90
46139;DHT22;32398;49.112;8.598;2024-03-06T15:54:29;8.40;99.90